Observation data for Brownfield on 01/11/2019      Previous  Date  Next       Current Mesonet Observations  Soil Data  Daily Summary Page  Observations in Plain Language
KBWS 110605Z 20009KT 08/06 A30 RMK A01 T00810057  RH  086%=      5-min Rain = 0
KBWS 110610Z 20010KT 08/06 A30 RMK A01 T00810057  RH  086%=      5-min Rain = 0
KBWS 110615Z 21009KT 08/06 A3001 RMK A01 T00810057  RH  086%=      5-min Rain = 0
KBWS 110620Z 21009KT 08/06 A3001 RMK A01 T00810057  RH  086%=      5-min Rain = 0
KBWS 110625Z 21009KT 08/06 A3001 RMK A01 T00810057  RH  087%=      5-min Rain = 0
KBWS 110630Z 21010KT 08/06 A3001 RMK A01 T00820059  RH  086%=      5-min Rain = 0
KBWS 110635Z 20010KT 08/06 A30 RMK A01 T00830059  RH  086%=      5-min Rain = 0
KBWS 110640Z 21010KT 08/06 A30 RMK A01 T00840060  RH  086%=      5-min Rain = 0
KBWS 110645Z 21011KT 09/06 A30 RMK A01 T00850060  RH  086%=      5-min Rain = 0
KBWS 110650Z 21011KT 09/06 A30 RMK A01 T00870061  RH  085%=      5-min Rain = 0
KBWS 110655Z 20011KT 09/06 A30 RMK A01 T00880061  RH  084%=      5-min Rain = 0
KBWS 110700Z 20011KT 09/06 A30 RMK A01 T00870061  RH  085%=      5-min Rain = 0
KBWS 110705Z 20012KT 09/06 A30 RMK A01 T00870061  RH  084%=      5-min Rain = 0
KBWS 110710Z 20012KT 09/06 A30 RMK A01 T00870061  RH  085%=      5-min Rain = 0
KBWS 110715Z 20012KT 09/06 A30 RMK A01 T00870061  RH  085%=      5-min Rain = 0
KBWS 110720Z 21012KT 09/06 A30 RMK A01 T00880062  RH  085%=      5-min Rain = 0
KBWS 110725Z 21011KT 09/06 A30 RMK A01 T00880062  RH  085%=      5-min Rain = 0
KBWS 110730Z 21010KT 09/06 A2999 RMK A01 T00890063  RH  085%=      5-min Rain = 0
KBWS 110735Z 22011KT 09/06 A2998 RMK A01 T00900064  RH  085%=      5-min Rain = 0
KBWS 110740Z 23009KT 09/06 A2997 RMK A01 T00910064  RH  085%=      5-min Rain = 0
KBWS 110745Z 20012KT 09/07 A2999 RMK A01 T00900066  RH  086%=      5-min Rain = 0
KBWS 110750Z 19012KT 09/07 A2999 RMK A01 T00890066  RH  087%=      5-min Rain = 0
KBWS 110755Z 19011KT 09/07 A2998 RMK A01 T00880066  RH  087%=      5-min Rain = 0
KBWS 110800Z 19009KT 09/07 A2998 RMK A01 T00870066  RH  088%=      5-min Rain = 0
KBWS 110805Z 19008KT 09/07 A2997 RMK A01 T00870066  RH  088%=      5-min Rain = 0
KBWS 110810Z 20009KT 09/07 A2998 RMK A01 T00870067  RH  089%=      5-min Rain = 0
KBWS 110815Z 19008KT 09/07 A2996 RMK A01 T00860068  RH  090%=      5-min Rain = 0
KBWS 110820Z 20004KT 09/07 A2995 RMK A01 T00850068  RH  090%=      5-min Rain = 0
KBWS 110825Z 19007KT 09/07 A2995 RMK A01 T00850068  RH  090%=      5-min Rain = 0
KBWS 110830Z 18007KT 09/07 A2994 RMK A01 T00850068  RH  091%=      5-min Rain = 0
KBWS 110835Z 17009KT 08/07 A2995 RMK A01 T00840068  RH  091%=      5-min Rain = 0
KBWS 110840Z 17011KT 08/07 A2996 RMK A01 T00830069  RH  092%=      5-min Rain = 0
KBWS 110845Z 17013KT 08/07 A2996 RMK A01 T00840068  RH  091%=      5-min Rain = 0
KBWS 110850Z 18014KT 09/07 A2996 RMK A01 T00850068  RH  091%=      5-min Rain = 0
KBWS 110855Z 18014KT 09/07 A2996 RMK A01 T00850068  RH  091%=      5-min Rain = 0
KBWS 110900Z 18013KT 09/07 A2995 RMK A01 T00850069  RH  091%=      5-min Rain = 0
KBWS 110905Z 18012KT 09/07 A2995 RMK A01 T00860070  RH  091%=      5-min Rain = 0
KBWS 110910Z 18011KT 09/07 A2995 RMK A01 T00860070  RH  091%=      5-min Rain = 0
KBWS 110915Z 19012KT 09/07 A2995 RMK A01 T00860071  RH  091%=      5-min Rain = 0
KBWS 110920Z 19011KT 09/07 A2995 RMK A01 T00860071  RH  092%=      5-min Rain = 0
KBWS 110925Z 18010KT 09/07 A2995 RMK A01 T00850071  RH  092%=      5-min Rain = 0
KBWS 110930Z 20007KT 08/07 A2994 RMK A01 T00840071  RH  092%=      5-min Rain = 0
KBWS 110935Z 21008KT 08/07 A2995 RMK A01 T00840071  RH  093%=      5-min Rain = 0
KBWS 110940Z 21009KT 08/07 A2996 RMK A01 T00840071  RH  093%=      5-min Rain = 0
KBWS 110945Z 21010KT 08/07 A2996 RMK A01 T00840071  RH  093%=      5-min Rain = 0
KBWS 110950Z 21010KT 09/07 A2996 RMK A01 T00850071  RH  092%=      5-min Rain = 0
KBWS 110955Z 21010KT 09/07 A2996 RMK A01 T00850071  RH  092%=      5-min Rain = 0
KBWS 111000Z 20011KT 09/07 A2996 RMK A01 T00850071  RH  093%=      5-min Rain = 0
KBWS 111005Z 21010KT 08/07 A2996 RMK A01 T00840071  RH  093%=      5-min Rain = 0
KBWS 111010Z 20011KT 08/07 A2996 RMK A01 T00840071  RH  093%=      5-min Rain = 0
KBWS 111015Z 20010KT 08/07 A2996 RMK A01 T00840071  RH  093%=      5-min Rain = 0
KBWS 111020Z 19011KT 08/07 A2995 RMK A01 T00840072  RH  093%=      5-min Rain = 0
KBWS 111025Z 19010KT 08/07 A2995 RMK A01 T00830071  RH  093%=      5-min Rain = 0
KBWS 111030Z 18010KT 08/07 A2995 RMK A01 T00830072  RH  094%=      5-min Rain = 0
KBWS 111035Z 19012KT 08/07 A2994 RMK A01 T00840072  RH  094%=      5-min Rain = 0
KBWS 111040Z 19012KT 08/07 A2994 RMK A01 T00840072  RH  094%=      5-min Rain = 0
KBWS 111045Z 19012KT 09/07 A2994 RMK A01 T00850073  RH  094%=      5-min Rain = 0
KBWS 111050Z 19011KT 09/07 A2993 RMK A01 T00850073  RH  093%=      5-min Rain = 0
KBWS 111055Z 20010KT 09/07 A2993 RMK A01 T00850073  RH  093%=      5-min Rain = 0
KBWS 111100Z 19010KT 09/07 A2993 RMK A01 T00850073  RH  093%=      5-min Rain = 0
KBWS 111105Z 19010KT 08/07 A2992 RMK A01 T00840073  RH  094%=      5-min Rain = 0
KBWS 111110Z 19009KT 08/07 A2992 RMK A01 T00840072  RH  094%=      5-min Rain = 0
KBWS 111115Z 19009KT 08/07 A2992 RMK A01 T00840073  RH  094%=      5-min Rain = 0
KBWS 111120Z 19008KT 08/07 A2992 RMK A01 T00830072  RH  094%=      5-min Rain = 0
KBWS 111125Z 19008KT 08/07 A2992 RMK A01 T00830072  RH  094%=      5-min Rain = 0
KBWS 111130Z 19008KT 08/07 A2992 RMK A01 T00820072  RH  094%=      5-min Rain = 0
KBWS 111135Z 20008KT 08/07 A2992 RMK A01 T00820072  RH  095%=      5-min Rain = 0
KBWS 111140Z 19008KT 08/07 A2992 RMK A01 T00820072  RH  095%=      5-min Rain = 0
KBWS 111145Z 20009KT 08/07 A2992 RMK A01 T00820072  RH  095%=      5-min Rain = 0
KBWS 111150Z 20009KT 08/07 A2992 RMK A01 T00820072  RH  095%=      5-min Rain = 0
KBWS 111155Z 20008KT 08/07 A2992 RMK A01 T00820072  RH  095%=      5-min Rain = 0
KBWS 111200Z 20009KT 08/07 A2992 RMK A01 T00810072  RH  095%=      5-min Rain = 0
KBWS 111205Z 20010KT 08/07 A2992 RMK A01 T00810071  RH  095%=      5-min Rain = 0
KBWS 111210Z 20009KT 08/07 A2991 RMK A01 T00800070  RH  095%=      5-min Rain = 0
KBWS 111215Z 20008KT 08/07 A2991 RMK A01 T00790070  RH  095%=      5-min Rain = 0
KBWS 111220Z 21007KT 08/07 A2991 RMK A01 T00770068  RH  095%=      5-min Rain = 0
KBWS 111225Z 20008KT 08/07 A2991 RMK A01 T00770068  RH  096%=      5-min Rain = 0
KBWS 111230Z 21008KT 08/07 A2991 RMK A01 T00760067  RH  096%=      5-min Rain = 0
KBWS 111235Z 21008KT 08/07 A2992 RMK A01 T00750067  RH  096%=      5-min Rain = 0
KBWS 111240Z 21008KT 07/07 A2992 RMK A01 T00740066  RH  096%=      5-min Rain = 0
KBWS 111245Z 22009KT 08/07 A2992 RMK A01 T00750067  RH  097%=      5-min Rain = 0
KBWS 111250Z 23009KT 08/07 A2992 RMK A01 T00760068  RH  096%=      5-min Rain = 0
KBWS 111255Z 22009KT 08/07 A2992 RMK A01 T00760067  RH  096%=      5-min Rain = 0
KBWS 111300Z 23009KT 08/07 A2991 RMK A01 T00770068  RH  095%=      5-min Rain = 0
KBWS 111305Z 22009KT 08/07 A2991 RMK A01 T00770068  RH  095%=      5-min Rain = 0
KBWS 111310Z 23008KT 08/07 A2991 RMK A01 T00770067  RH  095%=      5-min Rain = 0
KBWS 111315Z 22009KT 08/07 A2991 RMK A01 T00770067  RH  095%=      5-min Rain = 0
KBWS 111320Z 22010KT 08/07 A2991 RMK A01 T00780068  RH  095%=      5-min Rain = 0
KBWS 111325Z 22011KT 08/07 A2992 RMK A01 T00780068  RH  095%=      5-min Rain = 0
KBWS 111330Z 22010KT 08/07 A2991 RMK A01 T00780069  RH  095%=      5-min Rain = 0
KBWS 111335Z 22009KT 08/07 A2991 RMK A01 T00780069  RH  095%=      5-min Rain = 0
KBWS 111340Z 22009KT 08/07 A2991 RMK A01 T00790069  RH  095%=      5-min Rain = 0
KBWS 111345Z 22008KT 08/07 A2991 RMK A01 T00790069  RH  095%=      5-min Rain = 0
KBWS 111350Z 23008KT 08/07 A2991 RMK A01 T00790069  RH  095%=      5-min Rain = 0
KBWS 111355Z 22008KT 08/07 A2991 RMK A01 T00790070  RH  095%=      5-min Rain = 0
KBWS 111400Z 22008KT 08/07 A299 RMK A01 T00800070  RH  095%=      5-min Rain = 0
KBWS 111405Z 22008KT 08/07 A299 RMK A01 T00800070  RH  095%=      5-min Rain = 0
KBWS 111410Z 21008KT 08/07 A299 RMK A01 T00800071  RH  095%=      5-min Rain = 0
KBWS 111415Z 21009KT 08/07 A299 RMK A01 T00810071  RH  095%=      5-min Rain = 0
KBWS 111420Z 21009KT 08/07 A299 RMK A01 T00810071  RH  095%=      5-min Rain = 0
KBWS 111425Z 21009KT 08/07 A299 RMK A01 T00810071  RH  095%=      5-min Rain = 0
KBWS 111430Z 22009KT 08/07 A299 RMK A01 T00820072  RH  095%=      5-min Rain = 0
KBWS 111435Z 22009KT 08/07 A2991 RMK A01 T00830072  RH  094%=      5-min Rain = 0
KBWS 111440Z 22010KT 08/07 A2991 RMK A01 T00840072  RH  094%=      5-min Rain = 0
KBWS 111445Z 21010KT 08/07 A2992 RMK A01 T00840072  RH  094%=      5-min Rain = 0
KBWS 111450Z 21011KT 09/07 A2993 RMK A01 T00850073  RH  093%=      5-min Rain = 0
KBWS 111455Z 21012KT 09/07 A2993 RMK A01 T00860073  RH  093%=      5-min Rain = 0
KBWS 111500Z 22013KT 09/07 A2993 RMK A01 T00870074  RH  093%=      5-min Rain = 0
KBWS 111505Z 22013KT 09/08 A2993 RMK A01 T00880075  RH  092%=      5-min Rain = 0
KBWS 111510Z 22014KT 09/08 A2994 RMK A01 T00900075  RH  092%=      5-min Rain = 0
KBWS 111515Z 22015KT 09/08 A2994 RMK A01 T00910076  RH  092%=      5-min Rain = 0
KBWS 111520Z 22014KT 09/08 A2994 RMK A01 T00910077  RH  092%=      5-min Rain = 0
KBWS 111525Z 23013KT 09/08 A2994 RMK A01 T00920078  RH  092%=      5-min Rain = 0
KBWS 111530Z 22015KT 09/08 A2994 RMK A01 T00930078  RH  092%=      5-min Rain = 0
KBWS 111535Z 22014KT 09/08 A2993 RMK A01 T00930079  RH  092%=      5-min Rain = 0
KBWS 111540Z 22015KT 09/08 A2994 RMK A01 T00940080  RH  092%=      5-min Rain = 0
KBWS 111545Z 22013G18KT 10/08 A2994 RMK A01 T00960080  RH  092%=      5-min Rain = 0
KBWS 111550Z 22013KT 10/08 A2994 RMK A01 T00970081  RH  091%=      5-min Rain = 0
KBWS 111555Z 22013KT 10/08 A2994 RMK A01 T00970080  RH  091%=      5-min Rain = 0
KBWS 111600Z 22013KT 10/08 A2994 RMK A01 T00980081  RH  091%=      5-min Rain = 0
KBWS 111605Z 22012KT 10/08 A2994 RMK A01 T00990081  RH  090%=      5-min Rain = 0
KBWS 111610Z 22012KT 10/08 A2994 RMK A01 T00990082  RH  090%=      5-min Rain = 0
KBWS 111615Z 22013KT 10/08 A2994 RMK A01 T01010082  RH  089%=      5-min Rain = 0
KBWS 111620Z 22014G21KT 10/08 A2995 RMK A01 T01010082  RH  089%=      5-min Rain = 0
KBWS 111625Z 22013KT 10/08 A2995 RMK A01 T01020082  RH  089%=      5-min Rain = 0
KBWS 111630Z 22012G18KT 10/08 A2994 RMK A01 T01020082  RH  088%=      5-min Rain = 0
KBWS 111635Z 22013KT 10/08 A2994 RMK A01 T01020081  RH  088%=      5-min Rain = 0
KBWS 111640Z 22011KT 10/08 A2994 RMK A01 T01030081  RH  088%=      5-min Rain = 0
KBWS 111645Z 22012KT 10/08 A2994 RMK A01 T01040082  RH  087%=      5-min Rain = 0
KBWS 111650Z 23011KT 11/08 A2994 RMK A01 T01050082  RH  087%=      5-min Rain = 0
KBWS 111655Z 23010KT 11/08 A2994 RMK A01 T01060082  RH  087%=      5-min Rain = 0
KBWS 111700Z 22010KT 11/08 A2993 RMK A01 T01060082  RH  086%=      5-min Rain = 0
KBWS 111705Z 22012KT 11/08 A2993 RMK A01 T01080082  RH  085%=      5-min Rain = 0
KBWS 111710Z 22012KT 11/08 A2993 RMK A01 T01100083  RH  085%=      5-min Rain = 0
KBWS 111715Z 23013KT 11/08 A2993 RMK A01 T01100080  RH  083%=      5-min Rain = 0
KBWS 111720Z 23012KT 11/08 A2993 RMK A01 T01110080  RH  082%=      5-min Rain = 0
KBWS 111725Z 23012G17KT 11/08 A2993 RMK A01 T01130079  RH  081%=      5-min Rain = 0
KBWS 111730Z 23014G19KT 11/08 A2993 RMK A01 T01140077  RH  079%=      5-min Rain = 0
KBWS 111735Z 23013KT 11/08 A2992 RMK A01 T01130076  RH  079%=      5-min Rain = 0
KBWS 111740Z 23013G18KT 12/08 A2992 RMK A01 T01150077  RH  079%=      5-min Rain = 0
KBWS 111745Z 23015KT 12/08 A2991 RMK A01 T01160077  RH  078%=      5-min Rain = 0
KBWS 111750Z 24016KT 12/08 A2991 RMK A01 T01180077  RH  077%=      5-min Rain = 0
KBWS 111755Z 24015KT 12/08 A2991 RMK A01 T01200077  RH  076%=      5-min Rain = 0
KBWS 111800Z 24015KT 12/08 A299 RMK A01 T01220077  RH  075%=      5-min Rain = 0
KBWS 111805Z 24014KT 12/08 A299 RMK A01 T01240076  RH  073%=      5-min Rain = 0
KBWS 111810Z 25014KT 13/07 A299 RMK A01 T01270074  RH  071%=      5-min Rain = 0
KBWS 111815Z 25015G20KT 13/07 A2989 RMK A01 T01320072  RH  068%=      5-min Rain = 0
KBWS 111820Z 25014KT 14/08 A2989 RMK A01 T01370075  RH  067%=      5-min Rain = 0
KBWS 111825Z 25015KT 14/07 A2988 RMK A01 T01350070  RH  066%=      5-min Rain = 0
KBWS 111830Z 25015G20KT 14/07 A2988 RMK A01 T01350067  RH  064%=      5-min Rain = 0
KBWS 111835Z 25013KT 14/06 A2988 RMK A01 T01360064  RH  063%=      5-min Rain = 0
KBWS 111840Z 25015G20KT 14/06 A2988 RMK A01 T01380063  RH  061%=      5-min Rain = 0
KBWS 111845Z 26016G21KT 14/05 A2987 RMK A01 T01420053  RH  056%=      5-min Rain = 0
KBWS 111850Z 26014G20KT 15/05 A2987 RMK A01 T01460054  RH  055%=      5-min Rain = 0
KBWS 111855Z 27015G21KT 15/05 A2986 RMK A01 T01470050  RH  053%=      5-min Rain = 0

Page generated in 0.0065 seconds.